createdAt,value
2023-04-02T00:02:34.045Z,5.63
2023-04-02T00:05:50.940Z,6.22
2023-04-02T00:08:42.029Z,6.15
2023-04-02T00:11:33.356Z,8.68
2023-04-02T00:14:29.354Z,6.60
2023-04-02T00:17:18.585Z,10.73
2023-04-02T00:20:10.359Z,8.93
2023-04-02T00:23:02.975Z,9.23
2023-04-02T00:25:53.174Z,9.32
2023-04-02T00:28:41.947Z,9.10
2023-04-02T00:31:32.196Z,10.88
2023-04-02T00:34:24.115Z,9.13
2023-04-02T00:37:23.859Z,11.98
2023-04-02T00:40:21.634Z,11.32
2023-04-02T00:43:16.979Z,12.88
2023-04-02T00:46:14.403Z,11.23
2023-04-02T00:49:09.942Z,13.05
2023-04-02T00:52:01.934Z,13.10
2023-04-02T00:54:53.451Z,14.52
2023-04-02T00:57:45.177Z,13.70
2023-04-02T01:00:36.690Z,13.48
2023-04-02T01:03:36.573Z,13.60
2023-04-02T01:06:31.184Z,12.32
2023-04-02T01:09:38.081Z,11.00
2023-04-02T01:12:48.555Z,10.95
2023-04-02T01:15:43.145Z,12.40
2023-04-02T01:18:46.512Z,13.60
2023-04-02T01:21:55.457Z,13.82
2023-04-02T01:24:45.267Z,13.13
2023-04-02T01:27:40.537Z,11.95
2023-04-02T01:30:31.089Z,14.10
2023-04-02T01:33:22.016Z,12.93
2023-04-02T01:36:19.450Z,12.05
2023-04-02T01:39:20.189Z,12.20
2023-04-02T01:42:18.655Z,11.65
2023-04-02T01:45:11.339Z,10.98
2023-04-02T01:48:03.019Z,9.35
2023-04-02T01:50:55.226Z,9.02
2023-04-02T01:53:44.402Z,9.15
2023-04-02T01:56:34.419Z,9.98
2023-04-02T01:59:24.696Z,9.90
2023-04-02T02:02:21.978Z,8.77
2023-04-02T02:05:15.767Z,9.45
2023-04-02T02:08:17.251Z,8.38
2023-04-02T02:11:07.712Z,8.82
2023-04-02T02:14:02.408Z,7.53
2023-04-02T02:16:53.600Z,8.60
2023-04-02T02:19:45.431Z,7.95
2023-04-02T02:22:39.716Z,6.65
2023-04-02T02:25:36.317Z,6.63
2023-04-02T02:28:29.262Z,7.65
2023-04-02T02:31:23.043Z,7.47
2023-04-02T02:34:22.148Z,6.75
2023-04-02T02:37:15.264Z,6.75
2023-04-02T02:40:12.020Z,6.00
2023-04-02T02:43:05.816Z,6.70
2023-04-02T02:45:56.291Z,5.70
2023-04-02T02:48:46.757Z,7.38
2023-04-02T02:51:44.794Z,6.30
2023-04-02T02:54:41.793Z,5.75
2023-04-02T02:57:36.361Z,7.30
2023-04-02T03:00:26.160Z,6.87
2023-04-02T03:03:21.970Z,7.30
2023-04-02T03:06:20.933Z,5.70
2023-04-02T03:09:23.831Z,6.63
2023-04-02T03:12:34.042Z,5.85
2023-04-02T03:15:30.492Z,5.90
2023-04-02T03:18:29.122Z,6.57
2023-04-02T03:21:29.448Z,5.63
2023-04-02T03:24:24.039Z,5.88
2023-04-02T03:27:16.932Z,5.65
2023-04-02T03:30:30.802Z,5.78
2023-04-02T03:33:25.476Z,6.13
2023-04-02T03:36:21.565Z,6.50
2023-04-02T03:39:19.730Z,6.40
2023-04-02T03:42:17.841Z,6.53
2023-04-02T03:45:15.699Z,5.93
2023-04-02T03:48:09.676Z,5.78
2023-04-02T03:51:04.078Z,6.50
2023-04-02T03:53:52.886Z,6.80
2023-04-02T03:56:42.190Z,6.60
2023-04-02T03:59:42.825Z,7.20
2023-04-02T04:02:43.905Z,6.38
2023-04-02T04:05:37.104Z,8.27
2023-04-02T04:08:38.134Z,10.70
2023-04-02T04:11:34.065Z,8.97
2023-04-02T04:14:31.976Z,9.07
2023-04-02T04:17:30.278Z,9.83
2023-04-02T04:20:28.243Z,10.65
2023-04-02T04:23:25.890Z,10.57
2023-04-02T04:26:24.773Z,10.73
2023-04-02T04:29:34.367Z,13.38
2023-04-02T04:32:32.500Z,14.95
2023-04-02T04:35:34.828Z,14.10
2023-04-02T04:38:34.405Z,15.73
2023-04-02T04:41:29.413Z,15.27
2023-04-02T04:44:23.369Z,17.87
2023-04-02T04:47:22.147Z,19.00
2023-04-02T04:50:17.811Z,17.00
2023-04-02T04:53:09.777Z,17.20
2023-04-02T04:56:12.520Z,17.80
2023-04-02T04:59:18.292Z,17.23
2023-04-02T05:02:17.553Z,19.40
2023-04-02T05:05:20.737Z,18.33
2023-04-02T05:08:17.928Z,20.27
2023-04-02T05:11:11.717Z,17.73
2023-04-02T05:14:05.171Z,18.97
2023-04-02T05:17:00.647Z,17.87
2023-04-02T05:19:56.884Z,20.20
2023-04-02T05:22:51.998Z,19.38
2023-04-02T05:25:54.069Z,17.60
2023-04-02T05:28:48.452Z,21.77
2023-04-02T05:31:41.675Z,18.93
2023-04-02T05:34:37.659Z,16.67
2023-04-02T05:37:29.827Z,19.93
2023-04-02T05:40:25.124Z,22.00
2023-04-02T05:43:19.538Z,26.80
2023-04-02T05:46:18.189Z,28.07
2023-04-02T05:49:19.778Z,25.13
2023-04-02T05:52:15.083Z,30.83
2023-04-02T05:55:26.398Z,29.58
2023-04-02T05:58:35.382Z,29.70
2023-04-02T06:01:39.429Z,28.13
2023-04-02T06:04:50.763Z,26.20
2023-04-02T06:07:47.056Z,25.10
2023-04-02T06:10:45.301Z,23.70
2023-04-02T06:13:37.108Z,20.80
2023-04-02T06:16:29.443Z,22.00
2023-04-02T06:19:22.358Z,20.97
2023-04-02T06:22:19.942Z,18.60
2023-04-02T06:25:17.000Z,18.93
2023-04-02T06:28:13.278Z,18.53
2023-04-02T06:31:21.366Z,16.37
2023-04-02T06:34:17.532Z,16.50
2023-04-02T06:37:21.292Z,14.57
2023-04-02T06:40:34.976Z,10.43
2023-04-02T06:43:36.286Z,8.63
2023-04-02T06:46:52.688Z,8.37
2023-04-02T06:49:46.357Z,8.83
2023-04-02T06:52:39.978Z,8.73
2023-04-02T06:55:35.561Z,8.20
2023-04-02T06:58:24.613Z,7.07
2023-04-02T07:01:19.043Z,7.67
2023-04-02T07:04:11.071Z,8.07
2023-04-02T07:07:04.262Z,8.20
2023-04-02T07:09:57.803Z,8.60
2023-04-02T07:12:46.852Z,9.03
2023-04-02T07:15:36.569Z,8.33
2023-04-02T07:18:32.267Z,10.93
2023-04-02T07:21:25.653Z,11.20
2023-04-02T07:24:15.056Z,11.30
2023-04-02T07:27:04.235Z,10.67
2023-04-02T07:29:54.572Z,13.83
2023-04-02T07:32:43.344Z,11.83
2023-04-02T07:35:34.006Z,11.50
2023-04-02T07:38:25.025Z,11.60
2023-04-02T07:41:14.239Z,11.93
2023-04-02T07:44:03.419Z,11.97
2023-04-02T07:46:52.393Z,11.93
2023-04-02T07:49:41.892Z,10.77
2023-04-02T07:52:33.965Z,10.80
2023-04-02T07:55:24.136Z,11.30
2023-04-02T07:58:13.142Z,10.60
2023-04-02T08:01:03.863Z,11.00
2023-04-02T08:03:56.250Z,10.10
2023-04-02T08:06:44.989Z,11.23
2023-04-02T08:09:34.364Z,12.73
2023-04-02T08:12:27.691Z,10.83
2023-04-02T08:15:16.959Z,9.70
2023-04-02T08:18:06.170Z,8.97
2023-04-02T08:20:55.238Z,8.83
2023-04-02T08:23:44.083Z,9.03
2023-04-02T08:26:33.176Z,9.10
2023-04-02T08:29:24.054Z,9.17
2023-04-02T08:32:16.317Z,8.97
2023-04-02T08:35:05.704Z,8.73
2023-04-02T08:37:54.431Z,9.23
2023-04-02T08:40:45.169Z,10.77
2023-04-02T08:43:57.956Z,11.03
2023-04-02T08:46:52.167Z,12.07
2023-04-02T08:49:46.221Z,11.80
2023-04-02T08:52:38.000Z,10.57
2023-04-02T08:55:37.222Z,11.00
2023-04-02T08:58:33.394Z,11.47
2023-04-02T09:01:35.215Z,10.10
2023-04-02T09:04:27.353Z,10.50
2023-04-02T09:07:18.298Z,9.93
2023-04-02T09:10:07.724Z,10.33
2023-04-02T09:12:58.697Z,11.33
2023-04-02T09:15:47.562Z,9.43
2023-04-02T09:18:36.830Z,8.73
2023-04-02T09:21:36.120Z,6.13
2023-04-02T09:24:24.853Z,5.90
2023-04-02T09:27:19.987Z,6.53
2023-04-02T09:30:19.830Z,6.30
2023-04-02T09:33:09.423Z,5.83
2023-04-02T09:35:58.868Z,7.73
2023-04-02T09:39:02.189Z,7.80
2023-04-02T09:42:02.763Z,6.67
2023-04-02T09:44:54.135Z,7.37
2023-04-02T09:47:43.005Z,8.97
2023-04-02T09:50:34.291Z,6.33
2023-04-02T09:53:31.869Z,5.80
2023-04-02T09:56:23.442Z,5.47
2023-04-02T09:59:17.477Z,4.77
2023-04-02T10:02:23.343Z,11.43
2023-04-02T10:05:37.004Z,5.90
2023-04-02T10:08:28.492Z,5.20
2023-04-02T10:11:26.952Z,4.40
2023-04-02T10:14:28.324Z,5.67
2023-04-02T10:17:21.704Z,4.57
2023-04-02T10:20:20.178Z,4.97
2023-04-02T10:23:16.714Z,6.30
2023-04-02T10:26:17.118Z,6.63
2023-04-02T10:29:21.266Z,5.27
2023-04-02T10:32:16.254Z,5.23
2023-04-02T10:35:12.635Z,4.47
2023-04-02T10:38:29.046Z,5.82
2023-04-02T10:41:30.313Z,5.47
2023-04-02T10:44:33.633Z,4.50
2023-04-02T10:47:35.972Z,4.47
2023-04-02T10:50:34.980Z,5.57
2023-04-02T10:53:35.123Z,4.93
2023-04-02T10:56:26.342Z,6.80
2023-04-02T10:59:20.957Z,4.23
2023-04-02T11:02:34.569Z,4.53
2023-04-02T11:05:31.044Z,7.17
2023-04-02T11:08:23.843Z,6.20
2023-04-02T11:11:19.552Z,6.13
2023-04-02T11:14:16.622Z,8.13
2023-04-02T11:17:05.453Z,7.70
2023-04-02T11:20:37.005Z,7.60
2023-04-02T11:23:34.601Z,7.10
2023-04-02T11:26:42.864Z,8.83
2023-04-02T11:29:34.763Z,9.07
2023-04-02T11:32:34.688Z,9.77
2023-04-02T11:35:41.019Z,10.43
2023-04-02T11:38:54.953Z,10.17
2023-04-02T11:42:07.388Z,9.00
2023-04-02T11:45:03.864Z,10.27
2023-04-02T11:48:30.162Z,9.07
2023-04-02T11:52:02.136Z,9.67
2023-04-02T11:55:02.656Z,10.40
2023-04-02T11:58:20.679Z,10.67
2023-04-02T12:01:40.460Z,10.93
2023-04-02T12:04:56.681Z,9.63
2023-04-02T12:08:05.268Z,8.50
2023-04-02T12:10:57.824Z,8.73
2023-04-02T12:13:58.540Z,9.00
2023-04-02T12:16:48.818Z,10.70
2023-04-02T12:19:37.904Z,9.07
2023-04-02T12:22:34.971Z,7.83
2023-04-02T12:25:33.845Z,7.53
2023-04-02T12:28:23.652Z,9.43
2023-04-02T12:31:17.871Z,8.30
2023-04-02T12:34:14.381Z,8.50
2023-04-02T12:37:05.512Z,8.30
2023-04-02T12:39:59.047Z,8.40
2023-04-02T12:42:49.264Z,8.53
2023-04-02T12:45:38.638Z,8.20
2023-04-02T12:48:33.020Z,7.53
2023-04-02T12:51:21.908Z,7.93
2023-04-02T12:54:17.505Z,6.77
2023-04-02T12:57:36.413Z,7.77
2023-04-02T13:00:37.261Z,7.00
2023-04-02T13:03:29.043Z,7.13
2023-04-02T13:06:24.467Z,6.93
2023-04-02T13:09:33.526Z,6.83
2023-04-02T13:12:39.320Z,7.10
2023-04-02T13:15:33.340Z,8.00
2023-04-02T13:18:24.474Z,8.40
2023-04-02T13:21:28.550Z,6.23
2023-04-02T13:24:22.253Z,6.63
2023-04-02T13:27:12.547Z,6.00
2023-04-02T13:30:09.978Z,7.37
2023-04-02T13:33:01.147Z,6.17
2023-04-02T13:35:50.118Z,5.77
2023-04-02T13:38:39.257Z,5.23
2023-04-02T13:41:30.382Z,6.23
2023-04-02T13:44:24.397Z,6.53
2023-04-02T13:47:16.081Z,5.17
2023-04-02T13:50:07.060Z,6.37
2023-04-02T13:52:59.503Z,6.77
2023-04-02T13:55:48.847Z,7.43
2023-04-02T13:58:37.608Z,7.70
2023-04-02T14:01:27.395Z,6.67
2023-04-02T14:04:23.653Z,6.00
2023-04-02T14:07:40.283Z,5.53
2023-04-02T14:10:55.230Z,6.80
2023-04-02T14:14:19.042Z,6.63
2023-04-02T14:17:18.672Z,8.97
2023-04-02T14:20:19.905Z,7.00
2023-04-02T14:23:34.782Z,6.20
2023-04-02T14:26:30.471Z,5.80
2023-04-02T14:29:28.785Z,7.13
2023-04-02T14:32:25.228Z,7.03
2023-04-02T14:35:24.267Z,7.33
2023-04-02T14:38:23.656Z,7.27
2023-04-02T14:41:18.829Z,9.17
2023-04-02T14:44:09.771Z,6.07
2023-04-02T14:47:10.006Z,6.17
2023-04-02T14:50:04.102Z,7.17
2023-04-02T14:52:54.492Z,4.50
2023-04-02T14:55:48.552Z,5.80
2023-04-02T14:58:41.356Z,6.33
2023-04-02T15:01:37.389Z,6.50
2023-04-02T15:04:33.627Z,8.77
2023-04-02T15:07:26.854Z,5.80
2023-04-02T15:10:23.317Z,5.83
2023-04-02T15:13:21.350Z,4.90
2023-04-02T15:16:16.242Z,7.00
2023-04-02T15:19:11.956Z,5.10
2023-04-02T15:22:15.549Z,5.40
2023-04-02T15:25:20.286Z,7.77
2023-04-02T15:28:19.527Z,5.50
2023-04-02T15:31:13.422Z,6.50
2023-04-02T15:34:18.625Z,7.40
2023-04-02T15:37:15.671Z,10.53
2023-04-02T15:40:44.698Z,6.13
2023-04-02T15:43:42.359Z,5.50
2023-04-02T15:46:44.337Z,7.83
2023-04-02T15:49:42.848Z,6.03
2023-04-02T15:52:39.568Z,6.43
2023-04-02T15:55:37.666Z,6.77
2023-04-02T15:58:41.558Z,7.00
2023-04-02T16:01:38.087Z,7.47
2023-04-02T16:04:43.575Z,7.67
2023-04-02T16:07:52.856Z,6.33
2023-04-02T16:10:43.406Z,5.83
2023-04-02T16:13:34.673Z,6.20
2023-04-02T16:16:33.746Z,6.50
2023-04-02T16:19:30.269Z,6.67
2023-04-02T16:22:25.819Z,6.80
2023-04-02T16:25:19.425Z,6.83
2023-04-02T16:28:18.411Z,7.53
2023-04-02T16:31:13.004Z,8.53
2023-04-02T16:34:08.956Z,7.57
2023-04-02T16:37:03.311Z,8.30
2023-04-02T16:40:00.367Z,7.93
2023-04-02T16:42:54.399Z,25.07
2023-04-02T16:45:51.309Z,10.23
2023-04-02T16:48:48.811Z,8.30
2023-04-02T16:51:46.613Z,7.77
2023-04-02T16:54:43.824Z,7.30
2023-04-02T16:57:42.055Z,7.13
2023-04-02T17:00:38.223Z,9.07
2023-04-02T17:03:58.172Z,9.23
2023-04-02T17:06:58.730Z,7.33
2023-04-02T17:09:52.164Z,10.00
2023-04-02T17:12:46.889Z,8.63
2023-04-02T17:15:39.518Z,8.07
2023-04-02T17:18:28.876Z,8.53
2023-04-02T17:21:21.870Z,9.23
2023-04-02T17:24:24.598Z,6.70
2023-04-02T17:27:19.769Z,10.80
2023-04-02T17:30:17.496Z,9.30
2023-04-02T17:33:12.681Z,10.30
2023-04-02T17:36:22.407Z,8.67
2023-04-02T17:39:21.395Z,9.33
2023-04-02T17:42:25.574Z,9.23
2023-04-02T17:45:19.389Z,8.73
2023-04-02T17:48:16.133Z,9.17
2023-04-02T17:51:12.815Z,10.27
2023-04-02T17:54:14.223Z,8.10
2023-04-02T17:57:27.308Z,10.07
2023-04-02T18:00:50.722Z,8.13
2023-04-02T18:03:52.406Z,9.27
2023-04-02T18:06:48.077Z,8.17
2023-04-02T18:09:44.628Z,6.30
2023-04-02T18:12:48.878Z,6.67
2023-04-02T18:15:49.346Z,6.47
2023-04-02T18:18:54.309Z,8.00
2023-04-02T18:21:52.060Z,7.37
2023-04-02T18:25:18.137Z,7.60
2023-04-02T18:28:20.489Z,7.13
2023-04-02T18:31:17.379Z,6.03
2023-04-02T18:34:22.501Z,7.00
2023-04-02T18:37:24.184Z,5.93
2023-04-02T18:40:27.706Z,8.13
2023-04-02T18:43:39.749Z,6.30
2023-04-02T18:46:39.967Z,5.33
2023-04-02T18:49:34.545Z,5.60
2023-04-02T18:52:24.972Z,6.70
2023-04-02T18:55:18.480Z,6.00
2023-04-02T18:58:13.932Z,6.63
2023-04-02T19:01:07.763Z,6.13
2023-04-02T19:04:04.140Z,8.23
2023-04-02T19:06:58.334Z,9.37
2023-04-02T19:09:49.229Z,7.10
2023-04-02T19:12:38.040Z,7.43
2023-04-02T19:15:37.312Z,7.60
2023-04-02T19:18:39.825Z,8.53
2023-04-02T19:21:38.412Z,9.97
2023-04-02T19:24:42.582Z,8.23
2023-04-02T19:27:44.721Z,6.23
2023-04-02T19:30:50.282Z,5.63
2023-04-02T19:33:49.809Z,6.17
2023-04-02T19:36:45.940Z,6.30
2023-04-02T19:40:05.952Z,6.30
2023-04-02T19:42:55.491Z,5.13
2023-04-02T19:45:46.203Z,37.20
2023-04-02T19:48:45.588Z,20.67
2023-04-02T19:51:36.734Z,25.67
2023-04-02T19:54:25.887Z,13.27
2023-04-02T19:57:16.704Z,10.80
2023-04-02T20:00:06.949Z,10.73
2023-04-02T20:03:01.205Z,11.10
2023-04-02T20:05:50.561Z,8.53
2023-04-02T20:08:41.028Z,9.57
2023-04-02T20:11:29.761Z,9.03
2023-04-02T20:14:18.656Z,8.40
2023-04-02T20:17:07.589Z,10.73
2023-04-02T20:19:57.222Z,9.20
2023-04-02T20:22:46.238Z,8.77
2023-04-02T20:25:36.554Z,8.30
2023-04-02T20:28:27.613Z,7.50
2023-04-02T20:31:18.443Z,8.33
2023-04-02T20:34:09.553Z,7.27
2023-04-02T20:36:58.449Z,5.57
2023-04-02T20:39:47.203Z,7.97
2023-04-02T20:42:41.565Z,11.73
2023-04-02T20:45:34.115Z,7.80
2023-04-02T20:48:23.567Z,5.07
2023-04-02T20:51:15.518Z,3.60
2023-04-02T20:54:04.597Z,5.30
2023-04-02T20:56:53.747Z,4.83
2023-04-02T20:59:44.042Z,3.80
2023-04-02T21:02:33.482Z,2.87
2023-04-02T21:05:22.541Z,3.30
2023-04-02T21:08:11.431Z,4.33
2023-04-02T21:11:05.008Z,4.73
2023-04-02T21:13:53.720Z,4.47
2023-04-02T21:16:44.099Z,4.83
2023-04-02T21:19:33.431Z,6.47
2023-04-02T21:22:22.367Z,4.50
2023-04-02T21:25:11.557Z,4.70
2023-04-02T21:28:00.565Z,4.07
2023-04-02T21:30:49.453Z,2.20
2023-04-02T21:33:44.504Z,3.23
2023-04-02T21:36:35.674Z,2.87
2023-04-02T21:39:25.907Z,3.90
2023-04-02T21:42:18.995Z,3.37
2023-04-02T21:45:12.168Z,7.60
2023-04-02T21:48:01.058Z,2.03
2023-04-02T21:50:51.585Z,2.20
2023-04-02T21:53:41.110Z,4.57
2023-04-02T21:56:35.302Z,3.73
2023-04-02T21:59:27.833Z,4.50
2023-04-02T22:02:16.706Z,4.57
2023-04-02T22:05:06.316Z,2.57
2023-04-02T22:07:56.468Z,2.57
2023-04-02T22:10:45.666Z,4.13
2023-04-02T22:13:35.443Z,2.40
2023-04-02T22:16:26.062Z,3.23
2023-04-02T22:19:16.447Z,2.30
2023-04-02T22:22:05.926Z,3.57
2023-04-02T22:25:00.395Z,8.57
2023-04-02T22:27:51.930Z,4.20
2023-04-02T22:30:41.762Z,4.97
2023-04-02T22:33:35.470Z,3.17
2023-04-02T22:36:25.512Z,4.17
2023-04-02T22:39:15.463Z,3.97
2023-04-02T22:42:06.225Z,5.70
2023-04-02T22:44:54.958Z,3.70
2023-04-02T22:47:47.264Z,3.30
2023-04-02T22:50:36.316Z,4.40
2023-04-02T22:53:25.647Z,7.63
2023-04-02T22:56:16.142Z,4.17
2023-04-02T22:59:06.808Z,4.23
2023-04-02T23:01:55.752Z,5.33
2023-04-02T23:04:45.057Z,7.37
2023-04-02T23:07:34.808Z,5.70
2023-04-02T23:10:23.926Z,3.67
2023-04-02T23:13:18.199Z,3.77
2023-04-02T23:16:11.848Z,4.00
2023-04-02T23:19:02.966Z,3.37
2023-04-02T23:21:52.103Z,3.33
2023-04-02T23:24:41.137Z,5.77
2023-04-02T23:27:30.149Z,2.53
2023-04-02T23:30:19.194Z,3.00
2023-04-02T23:33:09.363Z,4.27
2023-04-02T23:35:58.598Z,5.03
2023-04-02T23:38:47.645Z,5.20
2023-04-02T23:41:37.536Z,3.53
2023-04-02T23:44:26.373Z,3.20
2023-04-02T23:47:15.216Z,2.87
2023-04-02T23:50:06.183Z,5.63
2023-04-02T23:52:54.900Z,2.33
2023-04-02T23:55:43.902Z,4.87
2023-04-02T23:58:32.718Z,4.53
